createdAt,value
2019-01-12T00:03:29.310Z,7.83
2019-01-12T00:08:16.708Z,7.98
2019-01-12T00:13:23.843Z,7.52
2019-01-12T00:18:32.142Z,7.81
2019-01-12T00:23:39.291Z,7.71
2019-01-12T00:29:00.611Z,6.64
2019-01-12T00:33:48.976Z,6.24
2019-01-12T00:44:10.044Z,5.60
2019-01-12T00:48:57.289Z,4.78
2019-01-12T00:54:18.363Z,4.25
2019-01-12T00:59:05.974Z,3.27
2019-01-12T01:04:13.089Z,3.57
2019-01-12T01:09:34.412Z,4.61
2019-01-12T01:14:21.481Z,5.81
2019-01-12T01:19:29.786Z,6.90
2019-01-12T01:24:37.044Z,7.85
2019-01-12T01:29:44.453Z,8.07
2019-01-12T01:34:51.519Z,8.44
2019-01-12T01:40:00.220Z,9.57
2019-01-12T01:45:07.228Z,10.43
2019-01-12T01:50:28.537Z,7.67
2019-01-12T01:55:28.529Z,8.16
2019-01-12T02:00:16.861Z,7.69
2019-01-12T02:05:37.860Z,7.83
2019-01-12T02:10:26.385Z,7.99
2019-01-12T02:15:34.587Z,8.11
2019-01-12T02:20:42.153Z,9.05
2019-01-12T02:25:49.184Z,9.88
2019-01-12T02:31:10.400Z,10.52
2019-01-12T02:35:57.542Z,9.08
2019-01-12T02:41:06.254Z,6.76
2019-01-12T02:46:26.362Z,7.09
2019-01-12T02:51:13.753Z,7.86
2019-01-12T02:56:33.739Z,7.50
2019-01-12T03:01:22.404Z,7.21
2019-01-12T03:06:30.518Z,7.73
2019-01-12T03:11:38.957Z,7.47
2019-01-12T03:16:46.192Z,6.17
2019-01-12T03:22:06.500Z,5.42
2019-01-12T03:26:53.780Z,4.30
2019-01-12T03:32:02.017Z,5.07
2019-01-12T03:37:09.109Z,4.88
2019-01-12T03:42:30.444Z,4.63
2019-01-12T03:47:17.577Z,3.63
2019-01-12T03:52:27.140Z,3.50
2019-01-12T03:57:47.243Z,3.11
2019-01-12T04:02:34.735Z,3.14
2019-01-12T04:07:41.949Z,2.63
2019-01-12T04:12:49.158Z,2.85
2019-01-12T04:17:57.351Z,2.34
2019-01-12T04:23:17.588Z,2.36
2019-01-12T04:28:04.694Z,2.20
2019-01-12T04:33:12.988Z,2.45
2019-01-12T04:43:21.203Z,2.27
2019-01-12T04:48:41.202Z,2.42
2019-01-12T04:53:29.631Z,2.12
2019-01-12T04:58:36.864Z,2.95
2019-01-12T05:03:57.101Z,2.48
2019-01-12T05:08:57.328Z,2.79
2019-01-12T05:13:44.715Z,2.14
2019-01-12T05:18:51.940Z,2.45
2019-01-12T05:23:59.689Z,3.12
2019-01-12T05:29:19.571Z,2.44
2019-01-12T05:34:08.098Z,3.60
2019-01-12T05:39:16.528Z,3.48
2019-01-12T05:44:24.140Z,3.11
2019-01-12T05:49:31.281Z,2.33
2019-01-12T05:54:52.511Z,2.18
2019-01-12T05:59:39.768Z,1.82
2019-01-12T06:04:47.087Z,2.35
2019-01-12T06:09:54.341Z,2.02
2019-01-12T06:15:01.762Z,1.86
2019-01-12T06:20:09.825Z,1.86
2019-01-12T06:25:18.136Z,2.41
2019-01-12T06:30:25.412Z,2.27
2019-01-12T06:35:32.746Z,2.08
2019-01-12T06:40:53.702Z,2.09
2019-01-12T06:45:55.055Z,1.85
2019-01-12T06:55:46.151Z,1.93
2019-01-12T07:00:57.069Z,2.17
2019-01-12T07:06:07.389Z,1.88
2019-01-12T07:11:08.583Z,1.50
2019-01-12T07:16:08.850Z,1.89
2019-01-12T07:21:08.902Z,1.76
2019-01-12T07:25:57.211Z,2.18
2019-01-12T07:36:05.753Z,1.69
2019-01-12T07:41:12.928Z,1.52
2019-01-12T07:46:21.335Z,1.54
2019-01-12T07:51:41.474Z,2.05
2019-01-12T07:56:41.621Z,1.44
2019-01-12T08:01:29.928Z,2.08
2019-01-12T08:06:37.510Z,1.83
2019-01-12T08:11:44.704Z,2.03
2019-01-12T08:21:55.910Z,1.82
2019-01-12T08:27:17.245Z,1.59
2019-01-12T08:32:18.209Z,2.06
2019-01-12T08:37:06.564Z,2.25
2019-01-12T08:42:13.731Z,1.91
2019-01-12T08:47:20.953Z,1.91
2019-01-12T08:52:29.019Z,1.98
2019-01-12T08:57:49.372Z,2.13
2019-01-12T09:02:37.584Z,2.30
2019-01-12T09:07:44.982Z,2.16
2019-01-12T09:12:53.236Z,2.08
2019-01-12T09:18:00.628Z,1.62
2019-01-12T09:23:08.019Z,2.19
2019-01-12T09:28:28.339Z,1.69
2019-01-12T09:33:28.349Z,1.84
2019-01-12T09:38:16.732Z,1.82
2019-01-12T09:43:37.849Z,1.77
2019-01-12T09:53:28.840Z,1.62
2019-01-12T09:58:36.184Z,1.58
2019-01-12T10:03:43.540Z,1.84
2019-01-12T10:09:03.936Z,2.39
2019-01-12T10:14:03.938Z,1.94
2019-01-12T10:18:52.136Z,1.84
2019-01-12T10:24:13.070Z,2.27
2019-01-12T10:29:01.494Z,1.90
2019-01-12T10:34:22.421Z,1.61
2019-01-12T10:39:22.092Z,1.46
2019-01-12T10:44:10.320Z,1.60
2019-01-12T10:49:17.806Z,2.02
2019-01-12T10:54:38.938Z,1.88
2019-01-12T10:59:39.148Z,1.97
2019-01-12T11:14:43.827Z,2.26
2019-01-12T11:19:45.014Z,1.65
2019-01-12T11:24:33.210Z,2.34
2019-01-12T11:29:40.492Z,2.05
2019-01-12T11:34:47.721Z,2.01
2019-01-12T11:44:56.002Z,1.60
2019-01-12T11:50:03.538Z,2.15
2019-01-12T11:55:23.672Z,1.63
2019-01-12T12:00:12.377Z,2.14
2019-01-12T12:10:23.120Z,1.49
2019-01-12T12:20:32.394Z,1.42
2019-01-12T12:25:52.726Z,1.45
2019-01-12T12:30:52.963Z,1.92
2019-01-12T12:35:53.105Z,1.57
2019-01-12T12:40:40.621Z,1.31
2019-01-12T12:45:47.711Z,1.29
2019-01-12T12:51:08.949Z,1.36
2019-01-12T12:55:56.252Z,2.05
2019-01-12T13:01:16.319Z,1.45
2019-01-12T13:06:17.491Z,1.38
2019-01-12T13:11:19.018Z,1.56
2019-01-12T13:16:06.477Z,1.33
2019-01-12T13:26:27.634Z,1.59
2019-01-12T13:31:28.013Z,1.57
2019-01-12T13:41:19.999Z,2.11
2019-01-12T13:46:28.072Z,2.64
2019-01-12T13:51:36.471Z,1.55
2019-01-12T14:02:00.436Z,1.36
2019-01-12T14:07:04.059Z,2.07
2019-01-12T14:12:04.312Z,2.29
2019-01-12T14:17:04.456Z,1.74
2019-01-12T14:21:56.807Z,2.40
2019-01-12T14:27:04.104Z,1.63
2019-01-12T14:32:25.430Z,1.99
2019-01-12T14:37:12.843Z,2.34
2019-01-12T14:42:33.164Z,1.75
2019-01-12T14:47:22.951Z,2.40
2019-01-12T14:57:22.270Z,2.06
2019-01-12T15:02:30.468Z,2.03
2019-01-12T15:12:41.720Z,2.07
2019-01-12T15:33:07.185Z,2.94
2019-01-12T15:37:54.427Z,2.72
2019-01-12T15:43:02.131Z,2.50
2019-01-12T15:53:11.333Z,2.18
2019-01-12T15:58:18.741Z,2.55
2019-01-12T16:03:40.169Z,2.43
2019-01-12T16:08:40.450Z,2.38
2019-01-12T16:13:27.814Z,2.28
2019-01-12T16:18:48.987Z,2.33
2019-01-12T16:23:49.318Z,2.79
2019-01-12T16:28:37.473Z,2.46
2019-01-12T16:33:58.999Z,3.15
2019-01-12T16:43:48.499Z,2.49
2019-01-12T16:48:57.115Z,2.24
2019-01-12T16:59:21.981Z,2.99
2019-01-12T17:09:13.128Z,1.92
2019-01-12T17:14:33.278Z,2.34
2019-01-12T17:19:34.301Z,2.18
2019-01-12T17:24:35.729Z,2.98
2019-01-12T17:29:35.901Z,2.48
2019-01-12T17:34:36.270Z,2.86
2019-01-12T17:49:28.203Z,4.38
2019-01-12T17:59:50.284Z,3.35
2019-01-12T18:04:51.589Z,3.50
2019-01-12T18:09:38.952Z,5.14
2019-01-12T18:14:59.223Z,3.62
2019-01-12T18:19:59.254Z,3.41
2019-01-12T18:25:00.693Z,3.57
2019-01-12T18:30:00.816Z,3.12
2019-01-12T18:34:48.078Z,3.36
2019-01-12T18:39:58.667Z,3.08
2019-01-12T18:50:06.782Z,3.84
2019-01-12T18:55:28.733Z,3.60
2019-01-12T19:00:28.741Z,3.87
2019-01-12T19:05:17.135Z,3.60
2019-01-12T19:10:25.311Z,3.62
2019-01-12T19:15:33.500Z,3.42
2019-01-12T19:20:41.744Z,3.62
2019-01-12T19:31:03.310Z,3.91
2019-01-12T19:35:50.644Z,3.65
2019-01-12T19:46:14.672Z,4.01
2019-01-12T19:51:01.995Z,3.52
2019-01-12T19:56:22.156Z,3.97
2019-01-12T20:01:23.293Z,4.39
2019-01-12T20:06:23.629Z,3.87
2019-01-12T20:11:24.608Z,3.72
2019-01-12T20:16:13.703Z,3.67
2019-01-12T20:21:34.873Z,3.56
2019-01-12T20:26:22.147Z,3.94
2019-01-12T20:36:31.620Z,4.08
2019-01-12T20:46:57.335Z,3.87
2019-01-12T20:51:44.720Z,3.94
2019-01-12T20:56:52.636Z,5.20
2019-01-12T21:12:04.346Z,3.79
2019-01-12T21:27:20.937Z,3.75
2019-01-12T21:32:30.496Z,4.04
2019-01-12T21:37:38.445Z,4.72
2019-01-12T21:47:50.168Z,4.77
2019-01-12T21:52:57.570Z,4.29
2019-01-12T21:58:05.153Z,4.53
2019-01-12T22:03:16.615Z,4.09
2019-01-12T22:08:26.688Z,3.28
2019-01-12T22:13:15.084Z,3.45
2019-01-12T22:18:22.558Z,4.30
2019-01-12T22:28:35.262Z,4.52
2019-01-12T22:38:56.500Z,4.21
2019-01-12T22:43:57.383Z,4.77
2019-01-12T22:48:45.851Z,5.15
2019-01-12T22:59:08.264Z,4.07
2019-01-12T23:04:09.444Z,4.27
2019-01-12T23:08:56.990Z,3.63
2019-01-12T23:14:17.258Z,4.26
2019-01-12T23:19:04.823Z,3.88
2019-01-12T23:24:24.978Z,5.14
2019-01-12T23:29:25.185Z,3.64
2019-01-12T23:39:17.331Z,3.66
2019-01-12T23:49:26.313Z,3.21
2019-01-12T23:59:38.487Z,4.50
